Time;durP1;ratioP1;P1;durP2;ratioP2;P2;SDS_P1;SDS_P2;PMS_P1;PMS_P2;Temp;Humidity;BMP_temperature;BMP_pressure;BME280_temperature;BME280_humidity;BME280_pressure;Samples;Min_cycle;Max_cycle;Signal;HPM_P1;HPM_P2
2023/08/31 00:08:00;;;;;;;10.67;9.07;;;17.00;99.90;;;;;;4634802;29;20269;-84
2023/08/31 00:28:27;;;;;;;10.40;8.73;;;16.80;99.90;;;;;;4572164;30;20635;-79
2023/08/31 00:32:47;;;;;;;10.73;9.00;;;16.80;99.90;;;;;;4507794;30;20603;-80
2023/08/31 01:54:23;;;;;;;6.20;5.60;;;16.40;99.90;;;;;;4570110;30;20218;-80
2023/08/31 02:20:02;;;;;;;7.83;7.13;;;16.20;99.90;;;;;;4699856;29;20342;-83
2023/08/31 02:24:21;;;;;;;8.90;7.00;;;16.20;99.90;;;;;;4642354;30;20540;-82
2023/08/31 02:45:15;;;;;;;7.80;7.00;;;16.20;99.90;;;;;;4615112;30;20452;-86
2023/08/31 03:50:35;;;;;;;8.50;7.37;;;15.80;99.90;;;;;;4584110;30;20587;-80
2023/08/31 04:06:30;;;;;;;8.37;7.30;;;15.90;99.90;;;;;;4550974;30;20866;-88
2023/08/31 05:02:09;;;;;;;6.67;5.50;;;16.20;99.90;;;;;;4617189;30;20208;-82
2023/08/31 05:27:32;;;;;;;7.53;5.20;;;16.90;99.90;;;;;;4599254;30;20365;-82
2023/08/31 06:03:04;;;;;;;5.23;4.73;;;17.60;99.90;;;;;;4761097;29;20287;-80
2023/08/31 06:33:39;;;;;;;1.87;1.30;;;18.00;99.90;;;;;;4667613;29;20219;-83
2023/08/31 06:37:58;;;;;;;1.70;1.60;;;18.30;99.00;;;;;;4582875;30;20685;-85
2023/08/31 07:09:05;;;;;;;2.00;1.80;;;18.90;96.50;;;;;;4764089;29;21291;-84
2023/08/31 07:34:17;;;;;;;3.28;2.70;;;19.20;99.90;;;;;;4605316;30;20216;-81
2023/08/31 07:59:40;;;;;;;2.38;2.17;;;19.20;93.00;;;;;;4537255;30;28516;-84
2023/08/31 08:24:50;;;;;;;2.30;1.75;;;20.10;90.00;;;;;;4558436;30;20194;-79
2023/08/31 09:15:41;;;;;;;3.00;2.30;;;20.70;85.50;;;;;;4447059;31;21178;-83
2023/08/31 09:31:08;;;;;;;3.17;2.30;;;21.40;81.00;;;;;;4508527;30;20324;-81
2023/08/31 10:31:35;;;;;;;2.58;2.38;;;21.80;80.30;;;;;;4450462;30;20770;-81
2023/08/31 10:52:22;;;;;;;3.58;2.35;;;22.20;76.10;;;;;;4570831;30;20675;-82
2023/08/31 11:32:50;;;;;;;3.50;2.70;;;22.60;71.70;;;;;;4730482;29;20222;-84
2023/08/31 11:53:17;;;;;;;3.08;2.88;;;23.00;66.90;;;;;;4622376;30;20227;-83
2023/08/31 12:18:09;;;;;;;3.50;3.20;;;22.90;64.70;;;;;;4527748;30;20740;-83
2023/08/31 12:43:31;;;;;;;3.50;3.20;;;23.50;64.00;;;;;;4608175;30;20551;-85
2023/08/31 13:09:11;;;;;;;4.10;3.10;;;23.50;64.30;;;;;;4681339;29;20229;-82
2023/08/31 13:39:08;;;;;;;3.53;3.17;;;23.70;64.10;;;;;;4743229;29;20628;-85
2023/08/31 13:59:29;;;;;;;3.85;3.55;;;23.60;62.40;;;;;;4661924;29;20332;-82
2023/08/31 14:29:50;;;;;;;4.13;3.70;;;19.80;90.30;;;;;;4550669;30;20772;-84
2023/08/31 14:50:43;;;;;;;4.63;4.23;;;18.90;93.20;;;;;;4677085;29;20644;-83
2023/08/31 15:21:18;;;;;;;10.80;9.83;;;16.20;99.90;;;;;;4692919;30;20233;-85
2023/08/31 16:52:31;;;;;;;9.63;8.53;;;18.00;99.90;;;;;;5688660;23;20238;-83
2023/08/31 16:56:50;;;;;;;8.47;7.73;;;18.10;99.90;;;;;;4747696;29;20682;-85
2023/08/31 17:17:30;;;;;;;5.73;5.33;;;17.20;99.90;;;;;;4558996;30;20640;-83
2023/08/31 17:47:34;;;;;;;5.57;5.17;;;16.50;99.90;;;;;;4579433;30;20461;-82
2023/08/31 18:07:57;;;;;;;5.10;4.70;;;16.20;99.90;;;;;;4584720;30;20582;-84
2023/08/31 18:39:00;;;;;;;5.77;5.27;;;15.90;99.90;;;;;;4835244;29;20204;-85
2023/08/31 18:43:20;;;;;;;6.23;5.63;;;15.70;99.90;;;;;;4782567;29;20525;-83
2023/08/31 19:04:24;;;;;;;5.70;5.03;;;15.80;99.90;;;;;;4841452;28;20226;-81
2023/08/31 19:08:45;;;;;;;6.03;4.60;;;15.70;99.90;;;;;;4715021;29;20448;-82
2023/08/31 19:39:51;;;;;;;5.47;4.97;;;15.40;99.90;;;;;;4738842;29;20212;-82
2023/08/31 19:44:10;;;;;;;6.17;5.17;;;15.40;99.90;;;;;;4621715;30;20593;-81
2023/08/31 20:00:07;;;;;;;5.17;4.73;;;15.30;99.90;;;;;;4669004;30;20684;-85
2023/08/31 20:04:28;;;;;;;5.50;4.87;;;15.40;99.90;;;;;;4623262;30;20568;-83
2023/08/31 20:24:53;;;;;;;6.00;5.40;;;15.00;99.90;;;;;;4577027;30;20261;-81
2023/08/31 20:50:06;;;;;;;6.00;5.50;;;14.60;99.90;;;;;;4626171;30;20661;-81
2023/08/31 21:11:02;;;;;;;7.07;6.37;;;14.50;99.90;;;;;;4528448;30;20220;-84
2023/08/31 21:46:28;;;;;;;8.63;6.87;;;13.40;99.90;;;;;;4660415;29;20778;-87
2023/08/31 22:16:54;;;;;;;9.13;7.30;;;13.10;99.90;;;;;;4623185;30;20229;-82
2023/08/31 22:37:12;;;;;;;7.90;7.10;;;13.20;99.90;;;;;;4643086;30;20210;-83
2023/08/31 23:07:04;;;;;;;6.53;5.93;;;13.40;99.90;;;;;;4587986;30;20607;-84
2023/08/31 23:27:59;;;;;;;7.33;6.30;;;13.20;99.90;;;;;;4576003;30;21843;-82
2023/08/31 23:57:44;;;;;;;5.90;5.40;;;13.10;99.90;;;;;;4576237;30;20426;-83
